Garden Valley, ID (83622)

9:14 AM MDT on July 26, 2016 (GMT -0600)
Archie Creek | | Change Station

Elev 4334 ft 44.06 °N, 115.51 °W | Updated 57 seconds ago

Clear
Clear
50.9 °F
Feels Like 50.9 °F
N
0.0
Wind Variable Wind from North
Gusts 0.0 mph

Today
High -- | Low -- °F
--% Chance of Precip.
Yesterday
High -- | Low -- °F
Precip. -- in
Pressure 29.90 in
Visibility 9.0 miles
Clouds Clear
Dew Point 43 °F
Humidity 75%
Rainfall 0.00 in
Snow Depth Not available.
6:24 AM 9:12 PM
Waning Gibbous, 54% visible
METAR KBOI 261453Z 15004KT 9SM CLR 24/03 A3000 RMK AO2 SLP124 T02440028 51012
Pressure 29.90 in
Visibility 9.0 miles
Clouds Clear
Dew Point 43 °F
Humidity 75%
Rainfall 0.00 in
Snow Depth Not available.
6:24 AM 9:12 PM
Waning Gibbous, 54% visible
METAR KBOI 261453Z 15004KT 9SM CLR 24/03 A3000 RMK AO2 SLP124 T02440028 51012

10-Day Weather Forecast

Almanac

Astronomy

Jul. 26, 2016 Rise Set
Actual Time
Civil Twilight
Nautical Twilight
Astronomical Twilight
Moon
Length of Visible Light
Length of Day
Tomorrow will be .
, % of the Moon is Illuminated

Today's Extremes

State Highs State Lows

Community

WunderPhotos

Upload Photos

1,927,612 photos uploaded!

WunderBlog® & News

Nearby

Air Quality

  Air Quality AQ Index Pollutant
Not available.

Snow Depth

Station Depth Elevation

Earthquake Activity

City Distance Mag. Time & Date
Minimum magnitude displayed is 2.5.

Coastal Water Temperatures

Place Temperature

Stations

Nearby Weather Stations

Station Location Temp. Windchill Dew Point Humidity Wind Precip. Elev Updated Type
                   

Watches & Warnings

There are currently no watches in effect.